createdAt,value
2022-10-19T00:01:27.922Z,13.06
2022-10-19T00:05:26.371Z,13.04
2022-10-19T00:09:24.790Z,13.04
2022-10-19T00:13:23.284Z,13.04
2022-10-19T00:17:21.552Z,12.93
2022-10-19T00:21:20.655Z,12.81
2022-10-19T00:25:19.013Z,12.71
2022-10-19T00:29:17.036Z,12.63
2022-10-19T00:33:21.295Z,12.55
2022-10-19T00:37:19.922Z,12.53
2022-10-19T00:41:19.399Z,12.53
2022-10-19T00:45:18.043Z,12.52
2022-10-19T00:49:18.388Z,12.52
2022-10-19T00:53:16.749Z,12.47
2022-10-19T00:57:15.700Z,12.46
2022-10-19T01:01:18.064Z,12.44
2022-10-19T01:05:16.678Z,12.45
2022-10-19T01:09:20.290Z,12.45
2022-10-19T01:13:12.378Z,12.44
2022-10-19T01:17:18.150Z,12.42
2022-10-19T01:21:35.908Z,12.36
2022-10-19T01:25:34.678Z,12.33
2022-10-19T01:29:33.085Z,12.29
2022-10-19T01:33:35.941Z,12.26
2022-10-19T01:37:39.215Z,12.24
2022-10-19T01:41:48.303Z,12.22
2022-10-19T01:46:05.153Z,12.20
2022-10-19T01:50:13.350Z,12.19
2022-10-19T01:54:14.822Z,12.19
2022-10-19T01:58:18.598Z,12.20
2022-10-19T02:02:17.436Z,12.21
2022-10-19T02:06:16.459Z,12.23
2022-10-19T02:14:23.414Z,12.25
2022-10-19T02:18:28.984Z,12.25
2022-10-19T02:22:28.655Z,12.24
2022-10-19T02:26:28.760Z,12.22
2022-10-19T02:30:32.289Z,12.16
2022-10-19T02:34:35.683Z,12.06
2022-10-19T02:38:40.140Z,12.01
2022-10-19T02:42:47.418Z,11.97
2022-10-19T02:47:01.567Z,11.93
2022-10-19T02:51:01.425Z,11.91
2022-10-19T02:55:00.126Z,11.90
2022-10-19T02:58:58.476Z,11.89
2022-10-19T03:02:56.876Z,11.88
2022-10-19T03:06:55.449Z,11.89
2022-10-19T03:10:54.771Z,11.90
2022-10-19T03:14:54.955Z,11.92
2022-10-19T03:18:53.320Z,11.90
2022-10-19T03:26:51.876Z,11.84
2022-10-19T03:30:50.482Z,11.78
2022-10-19T03:34:48.978Z,11.72
2022-10-19T03:38:50.325Z,11.68
2022-10-19T03:42:48.987Z,11.65
2022-10-19T03:46:47.468Z,11.61
2022-10-19T03:50:46.251Z,11.58
2022-10-19T03:54:45.828Z,11.57
2022-10-19T03:58:46.370Z,11.55
2022-10-19T04:02:45.030Z,11.54
2022-10-19T04:06:44.833Z,11.54
2022-10-19T04:10:46.596Z,11.54
2022-10-19T04:14:56.888Z,11.53
2022-10-19T04:19:01.719Z,11.54
2022-10-19T04:22:41.940Z,11.53
2022-10-19T04:26:15.495Z,11.53
2022-10-19T04:30:18.499Z,11.55
2022-10-19T04:33:53.855Z,11.55
2022-10-19T04:37:57.108Z,11.55
2022-10-19T04:41:39.453Z,11.56
2022-10-19T04:45:11.406Z,11.58
2022-10-19T04:48:48.715Z,11.57
2022-10-19T04:53:11.376Z,11.57
2022-10-19T04:56:28.440Z,11.57
2022-10-19T05:00:30.482Z,11.56
2022-10-19T05:04:06.912Z,11.54
2022-10-19T05:08:05.495Z,11.53
2022-10-19T05:12:09.724Z,11.49
2022-10-19T05:15:56.703Z,11.45
2022-10-19T05:19:20.817Z,11.41
2022-10-19T05:23:19.862Z,11.37
2022-10-19T05:27:18.415Z,11.32
2022-10-19T05:31:18.690Z,11.29
2022-10-19T05:35:21.505Z,11.27
2022-10-19T05:39:24.313Z,11.27
2022-10-19T05:42:59.113Z,11.27
2022-10-19T05:46:57.927Z,11.28
2022-10-19T05:50:57.479Z,11.30
2022-10-19T05:54:56.756Z,11.31
2022-10-19T05:58:59.593Z,11.32
2022-10-19T06:02:59.184Z,11.34
2022-10-19T06:06:58.256Z,11.36
2022-10-19T06:11:05.411Z,11.38
2022-10-19T06:15:09.846Z,11.39
2022-10-19T06:18:43.849Z,11.40
2022-10-19T06:22:44.361Z,11.41
2022-10-19T06:26:20.839Z,11.37
2022-10-19T06:30:22.104Z,11.28
2022-10-19T06:33:58.694Z,11.23
2022-10-19T06:37:59.183Z,11.24
2022-10-19T06:42:10.101Z,11.24
2022-10-19T06:45:45.834Z,11.22
2022-10-19T06:49:18.547Z,11.20
2022-10-19T06:52:56.569Z,11.19
2022-10-19T06:56:30.578Z,11.33
2022-10-19T07:00:30.384Z,11.52
2022-10-19T07:04:29.786Z,11.62
2022-10-19T07:08:29.852Z,11.64
2022-10-19T07:12:29.530Z,11.62
2022-10-19T07:16:28.603Z,11.63
2022-10-19T07:20:27.537Z,11.59
2022-10-19T07:24:26.213Z,11.46
2022-10-19T07:28:25.030Z,11.35
2022-10-19T07:32:23.874Z,11.50
2022-10-19T07:36:23.019Z,11.74
2022-10-19T07:40:22.477Z,12.01
2022-10-19T07:44:21.547Z,12.36
2022-10-19T07:48:20.325Z,12.72
2022-10-19T07:52:19.860Z,12.86
2022-10-19T07:56:24.414Z,12.72
2022-10-19T08:00:24.903Z,12.56
2022-10-19T08:08:43.115Z,12.57
2022-10-19T08:12:41.918Z,12.57
2022-10-19T08:16:44.573Z,12.52
2022-10-19T08:20:44.488Z,12.43
2022-10-19T08:24:43.141Z,12.49
2022-10-19T08:28:42.046Z,12.44
2022-10-19T08:32:40.844Z,12.59
2022-10-19T08:36:39.830Z,12.93
2022-10-19T08:40:39.600Z,13.35
2022-10-19T08:44:57.332Z,13.54
2022-10-19T08:48:57.189Z,13.34
2022-10-19T08:53:06.889Z,13.39
2022-10-19T08:57:14.547Z,13.52
2022-10-19T09:01:39.429Z,13.65
2022-10-19T09:05:56.758Z,13.68
2022-10-19T09:09:59.371Z,13.44
2022-10-19T09:14:10.541Z,13.38
2022-10-19T09:18:21.546Z,13.36
2022-10-19T09:22:22.251Z,13.53
2022-10-19T09:26:22.045Z,13.67
2022-10-19T09:30:21.910Z,13.53
2022-10-19T09:34:30.489Z,13.29
2022-10-19T09:38:29.939Z,13.04
2022-10-19T09:42:37.382Z,12.86
2022-10-19T09:46:43.125Z,12.90
2022-10-19T09:50:45.073Z,12.83
2022-10-19T09:54:45.254Z,12.85
2022-10-19T09:58:58.731Z,12.79
2022-10-19T10:02:58.207Z,12.63
2022-10-19T10:06:58.610Z,12.61
2022-10-19T10:11:20.067Z,12.49
2022-10-19T10:15:22.991Z,12.43
2022-10-19T10:19:28.810Z,12.50
2022-10-19T10:23:32.411Z,12.60
2022-10-19T10:27:37.260Z,12.61
2022-10-19T10:31:11.411Z,12.57
2022-10-19T10:35:22.682Z,12.63
2022-10-19T10:39:41.665Z,12.71
2022-10-19T10:43:03.049Z,12.75
2022-10-19T10:47:06.326Z,12.83
2022-10-19T10:51:09.520Z,12.82
2022-10-19T10:55:08.769Z,12.69
2022-10-19T10:59:20.352Z,12.53
2022-10-19T11:03:23.323Z,12.47
2022-10-19T11:07:24.221Z,12.48
2022-10-19T11:11:27.775Z,12.40
2022-10-19T11:19:41.376Z,12.27
2022-10-19T11:23:58.444Z,12.26
2022-10-19T11:27:59.889Z,12.23
2022-10-19T11:31:58.488Z,12.19
2022-10-19T11:46:33.314Z,12.31
2022-10-19T11:49:50.646Z,12.41
2022-10-19T11:53:49.334Z,12.39
2022-10-19T11:57:47.723Z,12.36
2022-10-19T12:02:05.138Z,12.30
2022-10-19T12:06:23.816Z,12.28
2022-10-19T12:10:41.683Z,12.24
2022-10-19T12:14:42.451Z,12.13
2022-10-19T12:18:56.068Z,12.07
2022-10-19T12:22:54.696Z,12.10
2022-10-19T12:26:54.343Z,12.15
2022-10-19T12:30:53.584Z,12.18
2022-10-19T12:34:52.388Z,12.20
2022-10-19T12:39:00.815Z,12.23
2022-10-19T12:43:15.567Z,12.27
2022-10-19T12:47:20.767Z,12.36
2022-10-19T12:51:18.931Z,12.49
2022-10-19T12:55:26.438Z,12.49
2022-10-19T12:59:26.625Z,12.38
2022-10-19T13:03:29.701Z,12.18
2022-10-19T13:07:31.212Z,11.99
2022-10-19T13:11:30.064Z,11.86
2022-10-19T13:15:34.992Z,11.77
2022-10-19T13:19:33.253Z,11.66
2022-10-19T13:23:31.733Z,11.59
2022-10-19T13:27:36.193Z,11.53
2022-10-19T13:31:34.759Z,11.46
2022-10-19T13:35:35.401Z,11.38
2022-10-19T13:39:39.018Z,11.29
2022-10-19T13:43:43.924Z,11.22
2022-10-19T13:47:48.462Z,11.19
2022-10-19T13:52:10.380Z,11.25
2022-10-19T13:56:11.216Z,11.27
2022-10-19T14:00:21.302Z,11.27
2022-10-19T14:04:29.898Z,11.28
2022-10-19T14:08:54.924Z,11.26
2022-10-19T14:12:59.024Z,11.21
2022-10-19T14:16:36.067Z,11.18
2022-10-19T14:20:37.908Z,11.14
2022-10-19T14:24:37.649Z,11.16
2022-10-19T14:28:38.449Z,11.15
2022-10-19T14:36:49.699Z,11.07
2022-10-19T14:40:51.073Z,11.02
2022-10-19T14:44:51.653Z,10.94
2022-10-19T14:48:52.488Z,10.86
2022-10-19T14:52:57.235Z,10.82
2022-10-19T14:57:08.563Z,10.77
2022-10-19T15:01:07.387Z,10.73
2022-10-19T15:05:07.817Z,10.68
2022-10-19T15:09:15.336Z,10.65
2022-10-19T15:13:28.248Z,10.60
2022-10-19T15:17:26.757Z,10.59
2022-10-19T15:21:25.677Z,10.56
2022-10-19T15:25:24.196Z,10.46
2022-10-19T15:29:24.175Z,10.40
2022-10-19T15:33:23.306Z,10.37
2022-10-19T15:37:23.826Z,10.40
2022-10-19T15:41:26.331Z,10.42
2022-10-19T15:45:38.702Z,10.38
2022-10-19T15:49:43.225Z,10.35
2022-10-19T15:53:42.229Z,10.33
2022-10-19T15:57:40.994Z,10.33
2022-10-19T16:01:39.612Z,10.34
2022-10-19T16:05:38.531Z,10.34
2022-10-19T16:09:37.034Z,10.40
2022-10-19T16:13:35.914Z,10.43
2022-10-19T16:17:38.502Z,10.46
2022-10-19T16:21:50.300Z,10.46
2022-10-19T16:25:57.169Z,10.61
2022-10-19T16:30:00.369Z,10.50
2022-10-19T16:34:03.057Z,10.38
2022-10-19T16:38:02.714Z,10.27
2022-10-19T16:42:11.035Z,10.20
2022-10-19T16:46:10.642Z,10.18
2022-10-19T16:50:12.656Z,10.16
2022-10-19T16:54:14.094Z,10.15
2022-10-19T16:58:13.885Z,10.16
2022-10-19T17:02:15.323Z,10.16
2022-10-19T17:06:15.342Z,10.19
2022-10-19T17:10:16.078Z,10.22
2022-10-19T17:14:23.214Z,10.22
2022-10-19T17:17:56.431Z,10.23
2022-10-19T17:21:58.511Z,10.21
2022-10-19T17:25:58.617Z,10.17
2022-10-19T17:29:59.219Z,10.11
2022-10-19T17:34:19.358Z,10.07
2022-10-19T17:37:40.862Z,10.07
2022-10-19T17:41:39.443Z,10.09
2022-10-19T17:45:37.840Z,10.09
2022-10-19T17:49:37.382Z,10.08
2022-10-19T17:53:35.953Z,10.06
2022-10-19T17:57:36.027Z,10.03
2022-10-19T18:01:35.549Z,10.00
2022-10-19T18:05:34.561Z,9.99
2022-10-19T18:09:33.188Z,10.00
2022-10-19T18:13:32.598Z,10.01
2022-10-19T18:17:31.126Z,10.03
2022-10-19T18:21:32.854Z,10.07
2022-10-19T18:25:53.431Z,10.13
2022-10-19T18:29:12.144Z,10.17
2022-10-19T18:33:11.457Z,10.21
2022-10-19T18:37:09.419Z,10.25
2022-10-19T18:45:15.349Z,10.28
2022-10-19T18:49:14.506Z,10.29
2022-10-19T18:53:14.575Z,10.30
2022-10-19T18:57:16.740Z,10.32
2022-10-19T19:01:03.772Z,10.33
2022-10-19T19:05:08.156Z,10.35
2022-10-19T19:09:08.657Z,10.37
2022-10-19T19:13:08.591Z,10.39
2022-10-19T19:17:09.973Z,10.41
2022-10-19T19:20:46.801Z,10.42
2022-10-19T19:24:52.971Z,10.42
2022-10-19T19:28:54.755Z,10.43
2022-10-19T19:32:58.140Z,10.45
2022-10-19T19:37:01.451Z,10.49
2022-10-19T19:41:06.981Z,10.51
2022-10-19T19:45:08.723Z,10.51
2022-10-19T19:49:08.499Z,10.49
2022-10-19T19:53:09.167Z,10.47
2022-10-19T19:57:10.792Z,10.46
2022-10-19T20:01:13.615Z,10.45
2022-10-19T20:05:13.855Z,10.45
2022-10-19T20:09:20.627Z,10.43
2022-10-19T20:13:00.296Z,10.42
2022-10-19T20:16:35.740Z,10.43
2022-10-19T20:20:37.613Z,10.42
2022-10-19T20:24:13.412Z,10.42
2022-10-19T20:28:15.461Z,10.43
2022-10-19T20:32:28.177Z,10.44
2022-10-19T20:35:57.734Z,10.44
2022-10-19T20:39:56.721Z,10.45
2022-10-19T20:44:14.243Z,10.45
2022-10-19T20:47:32.991Z,10.45
2022-10-19T20:51:33.119Z,10.46
2022-10-19T20:55:33.209Z,10.47
2022-10-19T20:59:33.784Z,10.48
2022-10-19T21:03:32.547Z,10.50
2022-10-19T21:07:49.762Z,10.52
2022-10-19T21:11:12.597Z,10.53
2022-10-19T21:15:11.041Z,10.52
2022-10-19T21:19:13.669Z,10.52
2022-10-19T21:23:15.732Z,10.51
2022-10-19T21:27:19.480Z,10.49
2022-10-19T21:30:53.246Z,10.50
2022-10-19T21:34:51.763Z,10.49
2022-10-19T21:38:49.979Z,10.49
2022-10-19T21:42:48.911Z,10.49
2022-10-19T21:46:48.240Z,10.50
2022-10-19T21:50:49.552Z,10.51
2022-10-19T21:54:51.582Z,10.52
2022-10-19T21:58:53.092Z,10.53
2022-10-19T22:02:55.746Z,10.56
2022-10-19T22:06:56.093Z,10.57
2022-10-19T22:10:55.853Z,10.58
2022-10-19T22:14:54.590Z,10.59
2022-10-19T22:18:54.034Z,10.59
2022-10-19T22:22:54.902Z,10.59
2022-10-19T22:26:53.779Z,10.61
2022-10-19T22:30:53.865Z,10.61
2022-10-19T22:34:54.405Z,10.61
2022-10-19T22:38:55.546Z,10.62
2022-10-19T22:42:54.362Z,10.63
2022-10-19T22:47:12.906Z,10.64
2022-10-19T22:50:32.862Z,10.65
2022-10-19T22:54:32.725Z,10.65
2022-10-19T22:58:34.805Z,10.65
2022-10-19T23:02:39.834Z,10.66
2022-10-19T23:06:16.114Z,10.65
2022-10-19T23:09:52.948Z,10.66
2022-10-19T23:13:29.930Z,10.66
2022-10-19T23:17:32.086Z,10.67
2022-10-19T23:21:36.955Z,10.67
2022-10-19T23:25:10.155Z,10.67
2022-10-19T23:29:12.490Z,10.66
2022-10-19T23:32:47.229Z,10.67
2022-10-19T23:36:45.556Z,10.67
2022-10-19T23:40:44.714Z,10.67
2022-10-19T23:44:45.933Z,10.67
2022-10-19T23:48:49.068Z,10.68
2022-10-19T23:56:56.136Z,10.70
